Content
SEND FEEDBACK

Daily
Averages
Monthly
Summary
Canada

DUBERGER, QUEBEC


Home > North America > Canada > Quebec
Elevation: 50 feet     Latitude: 46 49N     Longitude: 71 18W

WEATHER
 
SELECT A DAY
Number of Records: 133,960;   Date Range: 12/29/99 - 10/21/14
 
SHARE

PRINT THIS DATA

[ ← Previous Day ]
WEATHER ALMANAC - JUNE 29, 2013
[ Next Day → ]
[ °C ]   °F
We're sorry. There is no daily almanac available for Duberger, Quebec on June 29, 2013.
WEATHER BY HOUR - JUNE 29, 2013
[ °C ]   °F
Local TimeTemperatureDewpointHumidityBarometerVisibilityWind DirectionWind SpeedGust SpeedPrecipitationEventsConditions
1:00 AM53.8 °F53.4 °F99 %ENE (70°)16.1 mph28.8 mph
2:00 AM53.0 °F53.0 °F100 %ENE (70°)18.4 mph
2:00 AM53.4 °F53.1 °F99 %ENE (70°)18.4 mph28.8 mph0.11 in
3:00 AM53.1 °F52.7 °F99 %ENE (70°)15.0 mph27.6 mph0.31 in
4:00 AM53.1 °F52.7 °F99 %ENE (70°)17.3 mph25.3 mph
5:00 AM53.1 °F52.2 °F97 %East (80°)19.6 mph29.9 mph
6:00 AM53.1 °F52.3 °F97 %East (80°)15.0 mph21.9 mph0.05 in
7:00 AM53.6 °F52.9 °F97 %ENE (70°)13.8 mph19.6 mph
8:00 AM54.0 °F53.0 °F96 %ENE (70°)12.7 mph
8:00 AM53.8 °F53.2 °F98 %ENE (70°)12.7 mph19.6 mph
9:00 AM54.3 °F53.6 °F97 %ENE (70°)12.7 mph18.4 mph
10:00 AM55.0 °F54.1 °F97 %East (80°)13.8 mph19.6 mph
11:00 AM56.3 °F54.5 °F94 %East (80°)12.7 mph18.4 mph
12:00 PM57.2 °F54.7 °F91 %East (80°)11.5 mph19.6 mph
1:00 PM59.0 °F55.4 °F88 %East (80°)11.5 mph
2:00 PM59.0 °F55.0 °F84 %ENE (70°)15.0 mph
2:00 PM59.4 °F55.4 °F87 %ENE (70°)15.0 mph21.9 mph
3:00 PM59.2 °F56.1 °F90 %ENE (70°)11.5 mph
4:00 PM58.5 °F55.0 °F88 %East (80°)12.7 mph
5:00 PM56.7 °F54.1 °F91 %East (80°)11.5 mph
6:00 PM55.2 °F53.8 °F95 %ENE (70°)12.7 mph
7:00 PM55.6 °F53.8 °F94 %ENE (70°)10.4 mph
8:00 PM55.0 °F54.0 °F93 %ENE (70°)11.5 mph
8:00 PM54.9 °F53.6 °F96 %ENE (70°)11.5 mph18.4 mph
9:00 PM54.1 °F53.1 °F96 %ENE (60°)10.4 mph
10:00 PM54.0 °F52.7 °F95 %ENE (70°)9.2 mph
11:00 PM53.8 °F52.7 °F96 %East (80°)10.4 mph
Hourly data recorded from CWJB, located miles away from Duberger, Quebec







STORIES FROM OUR PARTNERS